Terminal Aerodrome Forecast
Issued by NWS Flagstaff, AZ

Home | Current Version | Previous Version | Text Only | Print | Product List | Glossary On
Versions: 1 2 3 4 5 6 7 8 9 10 11 12 13 14 15 16 17 18 19 20 21 22 23 24
000
FTUS45 KFGZ 220200 AAA
TAFFLG
TAF AMD
KFLG 220233Z 2203/2224 VRB06KT P6SM VCSH SCT050 BKN060 OVC090
      TEMPO 2207/2210 3SM TSRA BR OVC030CB=

USA.gov is the U.S. government's official web portal to all federal, state and local government web resources and services.